»·PEaware :: KAP516 KPDX-KSEA

KAP516 :: KPDX-KSEA

FLIGHT INFORMATION

Flight Status: Arrived
Operator:
Cape Air
More flights by this operator :: More flights under this callsign
Pilot: Gareth S. (19921)
Aircraft: BRITTEN NORMAN BN-2 ISLANDER DEFENDER
(BN2P)
More flights by this aircraft type
Origin: KPDX Portland Intl
United States
Destination: KSEA Seattle-Tacoma Intl
United States
More flights between these airports :: More routes between these airports
Route: PTLD1 BTG V23 SEA
File this flight plan on PilotEdge
Remarks:
Altitude:
(Current/Filed)
9,000ft
Speed:
(Current/Filed)
140kts
Departed: 06-Jul-20 01:38 PM
Arrived: 06-Jul-20 02:43 PM
Distance/Time
Traveled:
113nm/1:05
Distance/Time
To Go:
Arrived

Flight Plot

Page will automatically refresh every two minutes.


Map Options




Map Legend


Flown Route
Filed Route
Departure Airport
Arrival Airport
Navaid (VOR, NDB)
Fix

Horizontal Profiles

Position Reports

Time Latitude Longitude Heading Altitude Ground
Speed
06-Jul-20 13:08 45.587193 -122.582319 209 26ft 0kts
06-Jul-20 13:09 45.587193 -122.582319 209 26ft 0kts
06-Jul-20 13:10 45.587193 -122.582319 209 26ft 0kts
06-Jul-20 13:11 45.587193 -122.582319 209 26ft 0kts
06-Jul-20 13:12 45.587193 -122.582319 209 26ft 0kts
06-Jul-20 13:13 45.587193 -122.582319 209 26ft 0kts
06-Jul-20 13:14 45.587193 -122.582319 209 26ft 0kts
06-Jul-20 13:15 45.587193 -122.582319 209 26ft 0kts
06-Jul-20 13:16 45.587193 -122.582319 209 26ft 0kts
06-Jul-20 13:17 45.587193 -122.582319 209 26ft 0kts
06-Jul-20 13:18 45.587193 -122.582319 209 26ft 0kts
06-Jul-20 13:19 45.587193 -122.582319 209 26ft 0kts
06-Jul-20 13:20 45.587193 -122.582319 209 26ft 0kts
06-Jul-20 13:21 45.587193 -122.582319 209 26ft 0kts
06-Jul-20 13:22 45.587193 -122.582319 209 26ft 0kts
06-Jul-20 13:23 45.587193 -122.582319 209 26ft 0kts
06-Jul-20 13:24 45.587193 -122.582319 209 26ft 0kts
06-Jul-20 13:25 45.587193 -122.582319 209 26ft 0kts
06-Jul-20 13:26 45.587193 -122.582319 209 26ft 0kts
06-Jul-20 13:27 45.587193 -122.582319 209 26ft 0kts
06-Jul-20 13:28 45.587193 -122.582319 209 26ft 0kts
06-Jul-20 13:29 45.587193 -122.582319 209 26ft 0kts
06-Jul-20 13:30 45.587193 -122.582319 209 26ft 0kts
06-Jul-20 13:31 45.587193 -122.582319 209 26ft 0kts
06-Jul-20 13:32 45.587098 -122.582084 81 26ft 5kts
06-Jul-20 13:33 45.586284 -122.579369 116 26ft 8kts
06-Jul-20 13:34 45.586447 -122.577426 121 28ft 9kts
06-Jul-20 13:35 45.586312 -122.576313 27 28ft 0kts
06-Jul-20 13:36 45.586312 -122.576313 27 28ft 0kts
06-Jul-20 13:37 45.589170 -122.581050 298 33ft 74kts
06-Jul-20 13:38 45.601597 -122.614891 297 645ft 112kts
06-Jul-20 13:39 45.616374 -122.654087 297 1531ft 114kts
06-Jul-20 13:40 45.631574 -122.693275 297 2474ft 110kts
06-Jul-20 13:41 45.648052 -122.726918 344 3432ft 107kts
06-Jul-20 13:42 45.671888 -122.705407 44 4408ft 105kts
06-Jul-20 13:43 45.691912 -122.675403 44 5307ft 106kts
06-Jul-20 13:44 45.712957 -122.644199 43 6126ft 112kts
06-Jul-20 13:45 45.734852 -122.611713 44 6930ft 114kts
06-Jul-20 13:46 45.760799 -122.594620 346 7721ft 107kts
06-Jul-20 13:47 45.789502 -122.602466 345 8506ft 103kts
06-Jul-20 13:48 45.818460 -122.609771 346 9018ft 122kts
06-Jul-20 13:49 45.855676 -122.618986 347 8993ft 141kts
06-Jul-20 13:50 45.895103 -122.628736 347 8992ft 145kts
06-Jul-20 13:51 45.934861 -122.638636 347 8991ft 146kts
06-Jul-20 13:52 45.974887 -122.648648 347 8991ft 146kts
06-Jul-20 13:53 46.014865 -122.658622 347 8991ft 147kts
06-Jul-20 13:54 46.055190 -122.668730 347 9001ft 146kts
06-Jul-20 13:55 46.095357 -122.678857 347 9010ft 147kts
06-Jul-20 13:56 46.135937 -122.689388 347 9008ft 147kts
06-Jul-20 13:57 46.176494 -122.699656 347 9008ft 147kts
06-Jul-20 13:58 46.216643 -122.709758 347 9009ft 148kts
06-Jul-20 13:59 46.257447 -122.720032 347 9009ft 148kts
06-Jul-20 14:00 46.298476 -122.730413 347 9009ft 148kts
06-Jul-20 14:01 46.338478 -122.740561 347 9010ft 147kts
06-Jul-20 14:02 46.379087 -122.750844 347 9010ft 148kts
06-Jul-20 14:03 46.419851 -122.760966 353 9007ft 149kts
06-Jul-20 14:04 46.460151 -122.745025 15 9009ft 151kts
06-Jul-20 14:05 46.500304 -122.726817 15 9009ft 151kts
06-Jul-20 14:06 46.540600 -122.708492 15 9009ft 151kts
06-Jul-20 14:07 46.580813 -122.690235 15 9009ft 151kts
06-Jul-20 14:08 46.620979 -122.671987 15 9009ft 151kts
06-Jul-20 14:09 46.661393 -122.653967 15 9009ft 151kts
06-Jul-20 14:10 46.701586 -122.636532 15 9009ft 151kts
06-Jul-20 14:11 46.742145 -122.618729 15 9008ft 152kts
06-Jul-20 14:12 46.782602 -122.601240 15 9006ft 152kts
06-Jul-20 14:13 46.823189 -122.584001 15 9009ft 152kts
06-Jul-20 14:14 46.863781 -122.565853 18 9009ft 152kts
06-Jul-20 14:15 46.903900 -122.547398 15 9009ft 152kts
06-Jul-20 14:16 46.944136 -122.529463 16 8288ft 144kts
06-Jul-20 14:17 46.981536 -122.512512 15 7191ft 140kts
06-Jul-20 14:18 47.018667 -122.496036 15 6094ft 138kts
06-Jul-20 14:19 47.055457 -122.479729 15 5033ft 135kts
06-Jul-20 14:20 47.085669 -122.466411 14 5010ft 104kts
06-Jul-20 14:21 47.121457 -122.464100 355 4528ft 144kts
06-Jul-20 14:22 47.156158 -122.461599 1 3686ft 148kts
06-Jul-20 14:23 47.200650 -122.457577 1 3009ft 142kts
06-Jul-20 14:24 47.234583 -122.454544 1 3008ft 140kts
06-Jul-20 14:25 47.276056 -122.447816 21 3009ft 140kts
06-Jul-20 14:26 47.310532 -122.419908 29 3009ft 141kts
06-Jul-20 14:27 47.344757 -122.390490 25 3018ft 141kts
06-Jul-20 14:28 47.380080 -122.364609 13 3012ft 141kts
06-Jul-20 14:29 47.417856 -122.373028 344 3018ft 139kts
06-Jul-20 14:30 47.455332 -122.386164 344 3018ft 140kts
06-Jul-20 14:31 47.492237 -122.400916 340 3018ft 139kts
06-Jul-20 14:32 47.529193 -122.418150 339 3018ft 139kts
06-Jul-20 14:33 47.566178 -122.435968 339 3019ft 140kts
06-Jul-20 14:34 47.602156 -122.437224 58 3006ft 134kts
06-Jul-20 14:35 47.598227 -122.390149 104 3011ft 105kts
06-Jul-20 14:36 47.591323 -122.345875 105 2739ft 119kts
06-Jul-20 14:37 47.576782 -122.311059 171 2411ft 108kts
06-Jul-20 14:38 47.553923 -122.306599 180 2395ft 100kts
06-Jul-20 14:39 47.524064 -122.307112 183 1982ft 115kts
06-Jul-20 14:40 47.493512 -122.307363 186 1076ft 95kts
06-Jul-20 14:41 47.472476 -122.307442 185 713ft 72kts
06-Jul-20 14:42 47.460092 -122.306858 86 473ft 5kts
06-Jul-20 14:43 47.461283 -122.306105 0 473ft 9kts
06-Jul-20 14:44 47.462164 -122.302959 24 473ft 9kts
06-Jul-20 14:45 47.462308 -122.302672 179 473ft 0kts
06-Jul-20 14:46 47.462308 -122.302672 179 473ft 0kts
06-Jul-20 14:47 47.462308 -122.302672 179 473ft 0kts
06-Jul-20 14:49 47.462308 -122.302672 179 473ft 0kts
06-Jul-20 14:50 47.462308 -122.302672 179 473ft 0kts
06-Jul-20 14:51 47.462308 -122.302672 179 473ft 0kts
06-Jul-20 14:52 47.462308 -122.302672 179 473ft 0kts

Navigation Log

Ident Type
Flight plan parsing failed, navigation log unavailable